Time;durP1;ratioP1;P1;durP2;ratioP2;P2;SDS_P1;SDS_P2;PMS_P1;PMS_P2;Temp;Humidity;BMP_temperature;BMP_pressure;BME280_temperature;BME280_humidity;BME280_pressure;Samples;Min_cycle;Max_cycle;Signal;HPM_P1;HPM_P2
2024/03/24 00:00:36;;;;;;;6.53;2.70;;;;;;;;;;5035840;28;20025;-53
2024/03/24 00:03:01;;;;;;;7.85;3.30;;;;;;;;;;5036272;28;20021;-56
2024/03/24 00:05:27;;;;;;;6.90;2.80;;;;;;;;;;5036285;28;20442;-53
2024/03/24 00:07:52;;;;;;;9.82;3.03;;;;;;;;;;5036220;28;20075;-57
2024/03/24 00:10:17;;;;;;;7.97;3.05;;;;;;;;;;5035945;28;20021;-57
2024/03/24 00:12:43;;;;;;;10.82;3.08;;;;;;;;;;5035784;28;20021;-54
2024/03/24 00:15:08;;;;;;;9.63;3.08;;;;;;;;;;5036000;28;20022;-57
2024/03/24 00:17:34;;;;;;;8.23;2.60;;;;;;;;;;5035949;28;20028;-56
2024/03/24 00:19:59;;;;;;;7.22;3.20;;;;;;;;;;5035846;28;20112;-55
2024/03/24 00:22:24;;;;;;;6.80;2.70;;;;;;;;;;5035524;28;20013;-55
2024/03/24 00:24:49;;;;;;;9.20;3.40;;;;;;;;;;5034745;28;20017;-54
2024/03/24 00:27:15;;;;;;;9.68;3.20;;;;;;;;;;5035612;28;20013;-56
2024/03/24 00:29:40;;;;;;;8.82;3.55;;;;;;;;;;5018244;28;20071;-54
2024/03/24 00:32:06;;;;;;;9.38;3.55;;;;;;;;;;5035506;28;20018;-54
2024/03/24 00:34:31;;;;;;;9.10;3.35;;;;;;;;;;5035629;28;20027;-53
2024/03/24 00:36:56;;;;;;;10.02;3.60;;;;;;;;;;5017873;28;20089;-56
2024/03/24 00:39:21;;;;;;;7.97;3.58;;;;;;;;;;5035835;28;20468;-53
2024/03/24 00:41:46;;;;;;;9.82;3.17;;;;;;;;;;5035238;28;20442;-55
2024/03/24 00:44:12;;;;;;;10.00;3.60;;;;;;;;;;5035502;28;20017;-54
2024/03/24 00:46:37;;;;;;;8.43;3.42;;;;;;;;;;5035284;28;20043;-56
2024/03/24 00:49:03;;;;;;;7.60;3.67;;;;;;;;;;5035318;28;20431;-56
2024/03/24 00:51:29;;;;;;;9.02;3.67;;;;;;;;;;5035310;28;20026;-54
2024/03/24 00:53:54;;;;;;;9.00;3.28;;;;;;;;;;5035267;28;20021;-54
2024/03/24 00:56:19;;;;;;;7.82;3.95;;;;;;;;;;5035224;28;20025;-55
2024/03/24 00:58:44;;;;;;;7.57;3.80;;;;;;;;;;5034889;28;20017;-56
2024/03/24 01:01:09;;;;;;;8.05;3.65;;;;;;;;;;5034978;28;20466;-58
2024/03/24 01:03:35;;;;;;;9.38;3.38;;;;;;;;;;5035177;28;20458;-57
2024/03/24 01:06:00;;;;;;;8.40;3.88;;;;;;;;;;5034761;28;20021;-56
2024/03/24 01:08:25;;;;;;;10.45;3.53;;;;;;;;;;5034758;28;20030;-55
2024/03/24 01:10:50;;;;;;;7.97;4.00;;;;;;;;;;5034966;28;20392;-55
2024/03/24 01:13:16;;;;;;;12.18;4.78;;;;;;;;;;5035019;28;20132;-54
2024/03/24 01:15:44;;;;;;;8.27;3.70;;;;;;;;;;5034931;28;20025;-53
2024/03/24 01:18:10;;;;;;;7.93;4.43;;;;;;;;;;5034758;28;20061;-54
2024/03/24 01:20:35;;;;;;;8.25;3.47;;;;;;;;;;5034892;28;20068;-57
2024/03/24 01:23:00;;;;;;;7.45;3.53;;;;;;;;;;5017472;28;20028;-56
2024/03/24 01:25:25;;;;;;;7.57;3.60;;;;;;;;;;5034815;28;20053;-53
2024/03/24 01:27:51;;;;;;;11.60;3.95;;;;;;;;;;5034499;28;20021;-54
2024/03/24 01:30:16;;;;;;;7.57;3.65;;;;;;;;;;5034706;28;20061;-53
2024/03/24 01:32:41;;;;;;;7.28;3.50;;;;;;;;;;5034769;28;20028;-54
2024/03/24 01:35:07;;;;;;;7.53;3.70;;;;;;;;;;5034629;28;20018;-53
2024/03/24 01:37:32;;;;;;;10.90;4.15;;;;;;;;;;5034096;28;20450;-55
2024/03/24 01:39:57;;;;;;;9.40;3.78;;;;;;;;;;5034555;28;20441;-55
2024/03/24 01:42:22;;;;;;;13.18;3.90;;;;;;;;;;5034521;28;20104;-54
2024/03/24 01:44:47;;;;;;;11.65;4.03;;;;;;;;;;5034548;28;20227;-52
2024/03/24 01:47:13;;;;;;;10.50;3.63;;;;;;;;;;5034325;28;20053;-52
2024/03/24 01:49:39;;;;;;;11.63;3.70;;;;;;;;;;5034443;28;20025;-54
2024/03/24 01:52:05;;;;;;;12.13;4.25;;;;;;;;;;5034731;28;20025;-54
2024/03/24 01:54:31;;;;;;;7.80;3.47;;;;;;;;;;5034425;28;20032;-52
2024/03/24 01:56:56;;;;;;;9.63;4.07;;;;;;;;;;5034199;28;20092;-53
2024/03/24 01:59:22;;;;;;;10.93;4.13;;;;;;;;;;5034128;28;20053;-54
2024/03/24 02:01:47;;;;;;;8.88;3.78;;;;;;;;;;5034169;28;20120;-53
2024/03/24 02:04:12;;;;;;;7.93;3.80;;;;;;;;;;5034364;28;20100;-55
2024/03/24 02:06:37;;;;;;;9.32;4.32;;;;;;;;;;5033767;28;20040;-52
2024/03/24 02:09:03;;;;;;;10.88;4.47;;;;;;;;;;5034242;28;20441;-54
2024/03/24 02:11:28;;;;;;;8.98;3.75;;;;;;;;;;5016786;28;20071;-54
2024/03/24 02:13:57;;;;;;;9.48;4.28;;;;;;;;;;5034176;28;20029;-53
2024/03/24 02:16:22;;;;;;;8.82;4.05;;;;;;;;;;5033817;28;20132;-55
2024/03/24 02:18:47;;;;;;;10.38;4.25;;;;;;;;;;5034149;28;20071;-53
2024/03/24 02:21:12;;;;;;;8.20;3.90;;;;;;;;;;5034084;28;20055;-54
2024/03/24 02:23:38;;;;;;;9.13;4.18;;;;;;;;;;5034246;28;20053;-53
2024/03/24 02:26:03;;;;;;;8.98;4.53;;;;;;;;;;5034080;28;20100;-53
2024/03/24 02:28:29;;;;;;;12.93;4.63;;;;;;;;;;5034070;28;20127;-52
2024/03/24 02:30:54;;;;;;;9.30;4.15;;;;;;;;;;5034041;28;20160;-54
2024/03/24 02:33:19;;;;;;;9.82;4.32;;;;;;;;;;5034018;28;20035;-52
2024/03/24 02:35:45;;;;;;;10.32;4.35;;;;;;;;;;5033989;28;20032;-56
2024/03/24 02:38:10;;;;;;;7.75;3.97;;;;;;;;;;5033739;28;20025;-52
2024/03/24 02:40:35;;;;;;;13.38;4.70;;;;;;;;;;5049635;28;20025;-52
2024/03/24 02:43:01;;;;;;;10.25;4.20;;;;;;;;;;5033913;28;20021;-54
2024/03/24 02:45:26;;;;;;;9.52;4.45;;;;;;;;;;5033896;28;20025;-52
2024/03/24 02:47:51;;;;;;;11.30;4.97;;;;;;;;;;5033266;28;20109;-54
2024/03/24 02:50:16;;;;;;;9.38;4.28;;;;;;;;;;5019349;28;20021;-53
2024/03/24 02:52:41;;;;;;;10.95;4.20;;;;;;;;;;5037633;28;20370;-57
2024/03/24 02:55:07;;;;;;;10.13;4.70;;;;;;;;;;5037422;28;20116;-53
2024/03/24 02:57:32;;;;;;;9.15;5.03;;;;;;;;;;5037303;28;20033;-53
2024/03/24 02:59:57;;;;;;;10.98;5.05;;;;;;;;;;5037161;28;20524;-57
2024/03/24 03:02:23;;;;;;;13.65;5.13;;;;;;;;;;5085441;22;20074;-88
2024/03/24 03:04:48;;;;;;;11.75;5.50;;;;;;;;;;5078262;28;20342;-88
2024/03/24 03:07:13;;;;;;;11.75;4.95;;;;;;;;;;5078399;28;20138;-88
2024/03/24 03:09:39;;;;;;;10.68;5.30;;;;;;;;;;5078367;28;20021;-88
2024/03/24 03:12:04;;;;;;;10.75;5.38;;;;;;;;;;5060637;28;20028;-88
2024/03/24 03:14:32;;;;;;;12.77;5.53;;;;;;;;;;5078258;28;20507;-88
2024/03/24 03:16:59;;;;;;;12.63;5.20;;;;;;;;;;5060489;28;20089;-88
2024/03/24 03:19:26;;;;;;;10.43;5.03;;;;;;;;;;5060519;28;20202;-88
2024/03/24 03:21:52;;;;;;;12.32;5.00;;;;;;;;;;5060203;28;20028;-88
2024/03/24 03:24:19;;;;;;;12.50;4.88;;;;;;;;;;5077834;28;20449;-88
2024/03/24 03:26:45;;;;;;;10.48;4.75;;;;;;;;;;5060482;28;20457;-88
2024/03/24 03:29:12;;;;;;;10.98;4.85;;;;;;;;;;5060593;28;20437;-88
2024/03/24 03:31:39;;;;;;;10.10;4.20;;;;;;;;;;5060275;28;20021;-88
2024/03/24 03:34:05;;;;;;;9.70;3.80;;;;;;;;;;5060303;28;20051;-88
2024/03/24 03:36:32;;;;;;;9.55;3.90;;;;;;;;;;5077899;28;20111;-88
2024/03/24 03:38:59;;;;;;;7.57;3.60;;;;;;;;;;5060591;28;20032;-88
2024/03/24 03:41:25;;;;;;;6.65;3.47;;;;;;;;;;5060293;28;20459;-88
2024/03/24 03:43:52;;;;;;;8.52;3.60;;;;;;;;;;5059597;28;20330;-88
2024/03/24 03:46:19;;;;;;;12.25;3.45;;;;;;;;;;5061300;28;20098;-88
2024/03/24 03:48:48;;;;;;;7.70;3.13;;;;;;;;;;5060346;28;20020;-88
2024/03/24 03:51:29;;;;;;;8.15;3.60;;;;;;;;;;5078010;28;20441;-88
2024/03/24 03:53:57;;;;;;;9.15;3.75;;;;;;;;;;5077574;28;20028;-88
2024/03/24 03:56:22;;;;;;;7.80;3.70;;;;;;;;;;5077780;28;20036;-88
2024/03/24 03:58:48;;;;;;;8.90;3.43;;;;;;;;;;5077145;28;20449;-89
2024/03/24 04:01:15;;;;;;;8.40;3.50;;;;;;;;;;5103461;22;20050;-55
2024/03/24 04:03:42;;;;;;;7.82;3.33;;;;;;;;;;5099816;28;20394;-55
2024/03/24 04:06:08;;;;;;;9.73;3.88;;;;;;;;;;5116642;28;20020;-54
2024/03/24 04:08:34;;;;;;;8.07;3.60;;;;;;;;;;5116935;28;20110;-57
2024/03/24 04:11:01;;;;;;;12.73;4.20;;;;;;;;;;5117040;28;20102;-54
2024/03/24 04:13:27;;;;;;;8.52;4.07;;;;;;;;;;5116932;28;20304;-54
2024/03/24 04:15:54;;;;;;;11.05;4.30;;;;;;;;;;5117284;28;20083;-54
2024/03/24 04:18:21;;;;;;;9.48;4.07;;;;;;;;;;5116584;28;20015;-58
2024/03/24 04:20:47;;;;;;;9.45;4.20;;;;;;;;;;5116550;28;20355;-55
2024/03/24 04:23:14;;;;;;;11.38;4.40;;;;;;;;;;5116479;28;20016;-57
2024/03/24 04:25:40;;;;;;;8.77;3.75;;;;;;;;;;5116478;28;20421;-55
2024/03/24 04:28:07;;;;;;;8.85;3.90;;;;;;;;;;5116410;28;20045;-54
2024/03/24 04:30:34;;;;;;;10.93;4.13;;;;;;;;;;5116358;28;20352;-58
2024/03/24 04:33:00;;;;;;;12.32;4.30;;;;;;;;;;5117483;28;20047;-58
2024/03/24 04:35:27;;;;;;;15.90;4.57;;;;;;;;;;5116731;28;20026;-54
2024/03/24 04:37:54;;;;;;;13.60;4.65;;;;;;;;;;5116826;28;20058;-58
2024/03/24 04:40:20;;;;;;;13.40;5.00;;;;;;;;;;5116513;28;20055;-56
2024/03/24 04:42:47;;;;;;;13.10;4.30;;;;;;;;;;5116521;28;20023;-56
2024/03/24 04:45:13;;;;;;;11.80;4.40;;;;;;;;;;5116728;28;20085;-55
2024/03/24 04:47:40;;;;;;;14.48;4.45;;;;;;;;;;5116720;28;20421;-55
2024/03/24 04:50:07;;;;;;;11.18;4.97;;;;;;;;;;5117061;28;20020;-54
2024/03/24 04:52:33;;;;;;;12.82;4.78;;;;;;;;;;5116710;28;20012;-54
2024/03/24 04:54:59;;;;;;;13.63;4.70;;;;;;;;;;5116358;28;20027;-58
2024/03/24 04:57:26;;;;;;;13.65;5.13;;;;;;;;;;5116261;28;20081;-57
2024/03/24 04:59:53;;;;;;;13.68;4.80;;;;;;;;;;5116240;28;20012;-56
2024/03/24 05:02:19;;;;;;;12.32;4.53;;;;;;;;;;5116081;28;20027;-55
2024/03/24 05:04:46;;;;;;;10.48;4.03;;;;;;;;;;5116191;28;20062;-55
2024/03/24 05:07:13;;;;;;;13.60;6.15;;;;;;;;;;5116133;28;20360;-56
2024/03/24 05:09:39;;;;;;;10.77;4.38;;;;;;;;;;5116161;28;20024;-56
2024/03/24 05:12:06;;;;;;;10.23;4.30;;;;;;;;;;5115367;28;20024;-54
2024/03/24 05:14:33;;;;;;;10.65;4.70;;;;;;;;;;5116035;28;20019;-59
2024/03/24 05:17:00;;;;;;;12.77;4.88;;;;;;;;;;5116236;28;20034;-55
2024/03/24 05:19:26;;;;;;;11.20;4.93;;;;;;;;;;5116168;28;20108;-57
2024/03/24 05:21:52;;;;;;;11.80;4.53;;;;;;;;;;5115765;28;20523;-57
2024/03/24 05:24:19;;;;;;;11.73;4.90;;;;;;;;;;5115807;28;20447;-58
2024/03/24 05:26:45;;;;;;;9.63;4.22;;;;;;;;;;5116094;28;20024;-55
2024/03/24 05:29:12;;;;;;;14.18;4.88;;;;;;;;;;5115696;28;20026;-59
2024/03/24 05:31:41;;;;;;;15.27;5.55;;;;;;;;;;5115682;28;20026;-58
2024/03/24 05:34:09;;;;;;;14.63;5.30;;;;;;;;;;5115636;28;20015;-59
2024/03/24 05:36:35;;;;;;;12.63;5.22;;;;;;;;;;5115922;28;20061;-57
2024/03/24 05:39:01;;;;;;;13.13;5.53;;;;;;;;;;5115559;28;20450;-55
2024/03/24 05:41:27;;;;;;;15.45;5.35;;;;;;;;;;5115468;28;20019;-58
2024/03/24 05:43:54;;;;;;;13.35;5.45;;;;;;;;;;5116073;28;20019;-59
2024/03/24 05:46:20;;;;;;;13.40;5.30;;;;;;;;;;5116071;28;20399;-58
2024/03/24 05:48:46;;;;;;;14.55;5.40;;;;;;;;;;5115757;28;20019;-57
2024/03/24 05:51:13;;;;;;;12.35;5.07;;;;;;;;;;5115433;28;20333;-57
2024/03/24 05:53:40;;;;;;;15.37;5.60;;;;;;;;;;5115654;28;20027;-58
2024/03/24 05:56:06;;;;;;;15.57;5.43;;;;;;;;;;5115385;28;20022;-57
2024/03/24 05:58:33;;;;;;;15.27;5.82;;;;;;;;;;5115856;28;20043;-59
2024/03/24 06:01:03;;;;;;;15.73;4.90;;;;;;;;;;5115236;28;20020;-57
2024/03/24 06:03:30;;;;;;;17.85;6.00;;;;;;;;;;5115248;28;20451;-59
2024/03/24 06:05:57;;;;;;;14.30;5.70;;;;;;;;;;5115534;28;20012;-59
2024/03/24 06:08:23;;;;;;;18.15;6.60;;;;;;;;;;5115243;28;20047;-59
2024/03/24 06:10:50;;;;;;;13.80;5.77;;;;;;;;;;5115474;28;20019;-60
2024/03/24 06:13:16;;;;;;;17.67;5.97;;;;;;;;;;5115165;28;20019;-57
2024/03/24 06:15:43;;;;;;;15.85;5.03;;;;;;;;;;5115342;28;20016;-59
2024/03/24 06:18:11;;;;;;;16.63;5.30;;;;;;;;;;5115161;28;20012;-56
2024/03/24 06:20:38;;;;;;;14.20;5.45;;;;;;;;;;5115273;28;20052;-60
2024/03/24 06:23:05;;;;;;;19.50;5.78;;;;;;;;;;5116975;28;20027;-57
2024/03/24 06:25:32;;;;;;;17.27;5.95;;;;;;;;;;5119527;28;20019;-58
2024/03/24 06:28:01;;;;;;;25.15;6.45;;;;;;;;;;5119235;28;20018;-59
2024/03/24 06:30:28;;;;;;;14.80;5.25;;;;;;;;;;5119325;28;20020;-59
2024/03/24 06:32:55;;;;;;;19.35;5.88;;;;;;;;;;5119142;28;20019;-58
2024/03/24 06:35:22;;;;;;;14.93;5.68;;;;;;;;;;5119135;28;20019;-59
2024/03/24 06:37:47;;;;;;;14.57;5.68;;;;;;;;;;5119334;28;20019;-59
2024/03/24 06:40:14;;;;;;;19.00;5.55;;;;;;;;;;5101077;28;20020;-59
2024/03/24 06:42:48;;;;;;;21.73;5.68;;;;;;;;;;5118888;28;20098;-60
2024/03/24 06:45:15;;;;;;;19.85;5.60;;;;;;;;;;5102447;28;20008;-59
2024/03/24 06:47:42;;;;;;;18.00;5.15;;;;;;;;;;5118910;28;20011;-57
2024/03/24 06:50:08;;;;;;;18.98;5.72;;;;;;;;;;5118788;28;20018;-57
2024/03/24 06:52:35;;;;;;;15.02;4.80;;;;;;;;;;5118842;28;20015;-59
2024/03/24 06:55:01;;;;;;;19.80;5.32;;;;;;;;;;5118955;28;20011;-57
2024/03/24 06:57:27;;;;;;;17.90;5.13;;;;;;;;;;5118332;28;20047;-56
2024/03/24 06:59:54;;;;;;;7.32;2.75;;;;;;;;;;5118638;28;20478;-58
2024/03/24 07:02:19;;;;;;;5.65;2.22;;;;;;;;;;5118318;28;20164;-59
2024/03/24 07:04:46;;;;;;;8.38;2.45;;;;;;;;;;5118478;28;20069;-59
2024/03/24 07:07:12;;;;;;;7.70;2.40;;;;;;;;;;5100619;28;20031;-60
2024/03/24 07:09:39;;;;;;;13.85;2.97;;;;;;;;;;5118540;28;20365;-58
2024/03/24 07:12:05;;;;;;;8.13;2.38;;;;;;;;;;5118428;28;20027;-60
2024/03/24 07:14:32;;;;;;;7.35;2.40;;;;;;;;;;5118356;28;20027;-60
2024/03/24 07:16:58;;;;;;;10.60;2.80;;;;;;;;;;5118247;28;20092;-61
2024/03/24 07:19:25;;;;;;;8.30;2.88;;;;;;;;;;5118219;28;20023;-60
2024/03/24 07:21:50;;;;;;;9.27;2.50;;;;;;;;;;5118301;28;20100;-61
2024/03/24 07:24:16;;;;;;;6.97;2.88;;;;;;;;;;5100397;28;20028;-61
2024/03/24 07:26:43;;;;;;;7.60;2.53;;;;;;;;;;5118081;28;20080;-59
2024/03/24 07:29:09;;;;;;;8.93;3.05;;;;;;;;;;5118161;28;20012;-60
2024/03/24 07:31:36;;;;;;;9.32;3.20;;;;;;;;;;5100374;28;20321;-59
2024/03/24 07:34:03;;;;;;;9.32;3.50;;;;;;;;;;5117374;28;20018;-59
2024/03/24 07:36:29;;;;;;;8.87;3.20;;;;;;;;;;5118285;28;20083;-59
2024/03/24 07:38:56;;;;;;;9.25;3.30;;;;;;;;;;5117880;28;20039;-58
2024/03/24 07:41:23;;;;;;;9.02;3.22;;;;;;;;;;5117782;28;20038;-60
2024/03/24 07:43:49;;;;;;;10.43;3.35;;;;;;;;;;5117892;28;20023;-59
2024/03/24 07:46:15;;;;;;;10.90;4.00;;;;;;;;;;5117881;28;20020;-60
2024/03/24 07:48:41;;;;;;;11.77;4.07;;;;;;;;;;5117792;28;20016;-60
2024/03/24 07:51:08;;;;;;;10.10;3.65;;;;;;;;;;5117643;28;20058;-58
2024/03/24 07:53:34;;;;;;;10.20;3.60;;;;;;;;;;5117674;28;20023;-59
2024/03/24 07:56:01;;;;;;;11.27;3.75;;;;;;;;;;5117718;28;20020;-58
2024/03/24 07:58:28;;;;;;;11.13;3.80;;;;;;;;;;5117677;28;20031;-60
2024/03/24 08:00:54;;;;;;;13.63;4.10;;;;;;;;;;5117452;28;20436;-60
2024/03/24 08:03:21;;;;;;;12.13;3.78;;;;;;;;;;5117463;28;20027;-61
2024/03/24 08:05:47;;;;;;;11.00;3.28;;;;;;;;;;5116308;28;20032;-59
2024/03/24 08:08:13;;;;;;;10.32;3.00;;;;;;;;;;5117433;28;20116;-60
2024/03/24 08:10:40;;;;;;;9.45;2.70;;;;;;;;;;5117622;28;20023;-61
2024/03/24 08:13:05;;;;;;;5.95;2.78;;;;;;;;;;5117275;28;20386;-60
2024/03/24 08:15:31;;;;;;;8.07;3.08;;;;;;;;;;5117130;28;20024;-57
2024/03/24 08:17:57;;;;;;;9.05;3.50;;;;;;;;;;5117077;28;20019;-57
2024/03/24 08:20:24;;;;;;;9.43;3.50;;;;;;;;;;5116841;28;20118;-57
2024/03/24 08:22:52;;;;;;;9.90;3.40;;;;;;;;;;5099055;28;20045;-58
2024/03/24 08:25:19;;;;;;;10.65;4.07;;;;;;;;;;5116772;28;20035;-57
2024/03/24 08:27:45;;;;;;;11.07;3.80;;;;;;;;;;5117143;28;20459;-58
2024/03/24 08:30:12;;;;;;;10.57;3.55;;;;;;;;;;5098964;28;20015;-59
2024/03/24 08:32:38;;;;;;;12.65;4.03;;;;;;;;;;5117388;28;20050;-58
2024/03/24 08:35:05;;;;;;;13.40;4.38;;;;;;;;;;5117021;28;20344;-57
2024/03/24 08:37:31;;;;;;;11.80;4.45;;;;;;;;;;5116908;28;20099;-57
2024/03/24 08:39:57;;;;;;;13.18;4.45;;;;;;;;;;5116961;28;20020;-58
2024/03/24 08:42:25;;;;;;;9.65;4.22;;;;;;;;;;5116586;28;20067;-58
2024/03/24 08:44:51;;;;;;;10.82;4.22;;;;;;;;;;5116488;28;20046;-58
2024/03/24 08:47:18;;;;;;;16.85;4.75;;;;;;;;;;5115576;28;20046;-58
2024/03/24 08:49:44;;;;;;;12.13;4.32;;;;;;;;;;5116562;28;20511;-56
2024/03/24 08:52:11;;;;;;;13.50;4.15;;;;;;;;;;5098568;28;20026;-58
2024/03/24 08:54:37;;;;;;;9.43;3.80;;;;;;;;;;5116351;28;20344;-55
2024/03/24 08:57:03;;;;;;;11.20;4.07;;;;;;;;;;5115814;28;20122;-57
2024/03/24 08:59:29;;;;;;;12.50;4.68;;;;;;;;;;5096637;28;20110;-57
2024/03/24 09:01:55;;;;;;;9.38;3.78;;;;;;;;;;5096440;28;20026;-58
2024/03/24 09:04:22;;;;;;;15.43;4.47;;;;;;;;;;5095542;28;20351;-54
2024/03/24 09:06:48;;;;;;;14.30;5.18;;;;;;;;;;5095963;28;20352;-58
2024/03/24 09:09:24;;;;;;;12.82;4.22;;;;;;;;;;5095627;28;20012;-58
2024/03/24 09:11:50;;;;;;;10.13;4.07;;;;;;;;;;5108672;28;20026;-59
2024/03/24 09:14:17;;;;;;;16.70;4.43;;;;;;;;;;5098067;28;20106;-57
2024/03/24 09:16:44;;;;;;;13.75;4.65;;;;;;;;;;5116042;28;20020;-57
2024/03/24 09:19:10;;;;;;;14.57;4.82;;;;;;;;;;5115851;28;20356;-57
2024/03/24 09:21:36;;;;;;;16.83;4.90;;;;;;;;;;5116132;28;20023;-57
2024/03/24 09:24:03;;;;;;;11.82;4.50;;;;;;;;;;5098963;28;20043;-54
2024/03/24 09:26:30;;;;;;;12.77;4.30;;;;;;;;;;5095288;28;20028;-55
2024/03/24 09:28:56;;;;;;;13.07;4.18;;;;;;;;;;5105658;28;20444;-54
2024/03/24 09:31:23;;;;;;;12.85;4.60;;;;;;;;;;5110193;28;20020;-54
2024/03/24 09:33:50;;;;;;;12.88;4.38;;;;;;;;;;5095436;28;20467;-55
2024/03/24 09:36:17;;;;;;;13.23;4.70;;;;;;;;;;5112176;28;20062;-57
2024/03/24 09:38:44;;;;;;;15.30;4.80;;;;;;;;;;5115675;28;20037;-56
2024/03/24 09:41:09;;;;;;;19.77;4.90;;;;;;;;;;5116489;28;20448;-57
2024/03/24 09:43:34;;;;;;;16.02;4.50;;;;;;;;;;5115606;28;20090;-58
2024/03/24 09:46:00;;;;;;;16.02;4.82;;;;;;;;;;5115454;28;20058;-57
2024/03/24 09:48:28;;;;;;;14.60;4.65;;;;;;;;;;5095206;28;20119;-57
2024/03/24 09:50:55;;;;;;;16.70;4.70;;;;;;;;;;5095104;28;20024;-53
2024/03/24 09:53:21;;;;;;;13.65;4.60;;;;;;;;;;5095351;28;20032;-55
2024/03/24 09:55:46;;;;;;;16.17;4.40;;;;;;;;;;5097707;28;20034;-55
2024/03/24 09:58:12;;;;;;;13.30;3.97;;;;;;;;;;5115325;28;20107;-57
2024/03/24 10:00:37;;;;;;;19.63;4.13;;;;;;;;;;5115080;28;20106;-53
2024/03/24 10:03:04;;;;;;;12.88;4.32;;;;;;;;;;5113840;28;20020;-53
2024/03/24 10:05:30;;;;;;;11.88;3.80;;;;;;;;;;5115625;28;20025;-53
2024/03/24 10:07:58;;;;;;;13.27;3.97;;;;;;;;;;5115413;28;20030;-55
2024/03/24 10:10:23;;;;;;;12.13;3.97;;;;;;;;;;5097316;28;20023;-57
2024/03/24 10:12:55;;;;;;;12.40;3.40;;;;;;;;;;5115187;28;20053;-56
2024/03/24 10:15:27;;;;;;;14.93;3.55;;;;;;;;;;5115394;28;20051;-53
2024/03/24 10:18:09;;;;;;;16.77;4.18;;;;;;;;;;5109864;28;20098;-54
2024/03/24 10:20:38;;;;;;;15.13;3.53;;;;;;;;;;5094943;28;20410;-57
2024/03/24 10:23:04;;;;;;;14.50;4.15;;;;;;;;;;5095077;28;20023;-58
2024/03/24 10:25:32;;;;;;;14.02;4.22;;;;;;;;;;5094946;28;20099;-55
2024/03/24 10:28:18;;;;;;;15.52;4.32;;;;;;;;;;5077495;28;20055;-56
2024/03/24 10:30:43;;;;;;;14.93;4.03;;;;;;;;;;5095102;28;20359;-58
2024/03/24 10:33:09;;;;;;;12.32;3.92;;;;;;;;;;5094677;28;20085;-53
2024/03/24 10:35:35;;;;;;;16.95;4.22;;;;;;;;;;5094672;28;20016;-52
2024/03/24 10:38:01;;;;;;;12.52;3.33;;;;;;;;;;5095020;28;20093;-52
2024/03/24 10:40:29;;;;;;;12.30;4.15;;;;;;;;;;5094818;28;20024;-53
2024/03/24 10:42:54;;;;;;;17.52;4.05;;;;;;;;;;5095170;28;20038;-52
2024/03/24 10:45:24;;;;;;;14.43;3.63;;;;;;;;;;5111996;28;20015;-53
2024/03/24 10:47:52;;;;;;;15.45;4.43;;;;;;;;;;5107733;28;20020;-53
2024/03/24 10:50:18;;;;;;;14.50;3.90;;;;;;;;;;5094572;28;20020;-54
2024/03/24 10:52:46;;;;;;;10.65;3.80;;;;;;;;;;5094564;28;20067;-53
2024/03/24 10:55:12;;;;;;;14.90;3.63;;;;;;;;;;5094497;28;20357;-56
2024/03/24 10:57:39;;;;;;;17.10;4.15;;;;;;;;;;5103128;28;20027;-53
2024/03/24 11:00:05;;;;;;;15.27;3.90;;;;;;;;;;5107936;28;20031;-56
2024/03/24 11:02:30;;;;;;;14.13;4.45;;;;;;;;;;5093604;28;20028;-54
2024/03/24 11:04:56;;;;;;;13.18;3.40;;;;;;;;;;5094417;28;20012;-52
2024/03/24 11:07:22;;;;;;;13.98;3.42;;;;;;;;;;5095535;28;20052;-55
2024/03/24 11:09:47;;;;;;;14.57;3.15;;;;;;;;;;5115953;28;20356;-56
2024/03/24 11:12:12;;;;;;;12.18;3.03;;;;;;;;;;5118182;28;20028;-54
2024/03/24 11:14:38;;;;;;;15.48;3.22;;;;;;;;;;5118652;28;20031;-56
2024/03/24 11:17:03;;;;;;;16.23;3.15;;;;;;;;;;5118346;28;20126;-58
2024/03/24 11:19:28;;;;;;;13.25;3.40;;;;;;;;;;5100202;28;20103;-58
2024/03/24 11:21:54;;;;;;;16.83;3.42;;;;;;;;;;5097832;28;20101;-55
2024/03/24 11:24:23;;;;;;;20.42;3.75;;;;;;;;;;5102544;28;20034;-52
2024/03/24 11:26:49;;;;;;;15.10;4.20;;;;;;;;;;5118010;28;20043;-53
2024/03/24 11:29:34;;;;;;;16.95;6.30;;;;;;;;;;5118129;28;20034;-54
2024/03/24 11:31:59;;;;;;;14.68;3.95;;;;;;;;;;5115814;28;20352;-53
2024/03/24 11:34:24;;;;;;;15.25;3.28;;;;;;;;;;5097658;28;20039;-54
2024/03/24 11:36:50;;;;;;;17.08;3.47;;;;;;;;;;5097565;28;20039;-53
2024/03/24 11:39:15;;;;;;;13.45;3.97;;;;;;;;;;5097561;28;20027;-56
2024/03/24 11:41:52;;;;;;;15.98;3.53;;;;;;;;;;5097307;28;20027;-53
2024/03/24 11:44:18;;;;;;;11.13;2.65;;;;;;;;;;5097400;28;20051;-54
2024/03/24 11:46:43;;;;;;;13.88;3.20;;;;;;;;;;5097386;28;20467;-55
2024/03/24 11:49:10;;;;;;;16.52;4.00;;;;;;;;;;5097819;28;20050;-54
2024/03/24 11:51:36;;;;;;;11.55;3.53;;;;;;;;;;5097222;28;20023;-55
2024/03/24 11:54:01;;;;;;;13.18;4.03;;;;;;;;;;5097260;28;20020;-55
2024/03/24 11:56:26;;;;;;;16.58;3.20;;;;;;;;;;5116108;28;20019;-54
2024/03/24 11:58:53;;;;;;;14.40;3.20;;;;;;;;;;5117668;28;20352;-53
2024/03/24 12:01:18;;;;;;;13.98;2.92;;;;;;;;;;5116780;28;20023;-53
2024/03/24 12:03:44;;;;;;;9.93;2.95;;;;;;;;;;5117609;28;20024;-54
2024/03/24 12:06:15;;;;;;;15.70;3.50;;;;;;;;;;5115650;28;20500;-54
2024/03/24 12:08:47;;;;;;;13.77;3.30;;;;;;;;;;5117105;28;20020;-53
2024/03/24 12:11:15;;;;;;;12.82;3.35;;;;;;;;;;5103353;28;20038;-56
2024/03/24 12:13:41;;;;;;;17.33;4.00;;;;;;;;;;5096951;28;20479;-53
2024/03/24 12:16:06;;;;;;;17.17;4.00;;;;;;;;;;5079134;28;20024;-54
2024/03/24 12:18:31;;;;;;;14.27;3.70;;;;;;;;;;5115024;28;20023;-55
2024/03/24 12:21:00;;;;;;;16.83;4.28;;;;;;;;;;5116794;28;20031;-57
2024/03/24 12:23:26;;;;;;;19.55;4.50;;;;;;;;;;5117048;28;20016;-59
2024/03/24 12:25:53;;;;;;;13.48;3.30;;;;;;;;;;5116991;28;20031;-59
2024/03/24 12:28:18;;;;;;;15.75;3.72;;;;;;;;;;5116990;28;20055;-56
2024/03/24 12:30:54;;;;;;;15.82;3.30;;;;;;;;;;5098099;28;20035;-59
2024/03/24 12:33:21;;;;;;;18.33;3.88;;;;;;;;;;5079151;28;20048;-57
2024/03/24 12:35:47;;;;;;;16.00;3.47;;;;;;;;;;5096403;28;20106;-54
2024/03/24 12:38:12;;;;;;;13.48;3.33;;;;;;;;;;5103911;28;20501;-56
2024/03/24 12:40:38;;;;;;;20.17;3.83;;;;;;;;;;5097979;28;20028;-53
2024/03/24 12:43:12;;;;;;;16.65;3.83;;;;;;;;;;5096282;28;20020;-55
2024/03/24 12:45:37;;;;;;;15.18;3.25;;;;;;;;;;5078388;28;20020;-53
2024/03/24 12:48:09;;;;;;;12.15;2.90;;;;;;;;;;5104479;28;20046;-53
2024/03/24 12:50:35;;;;;;;14.70;3.08;;;;;;;;;;5116521;28;20023;-55
2024/03/24 12:53:06;;;;;;;12.95;3.28;;;;;;;;;;5116456;28;20015;-52
2024/03/24 12:55:33;;;;;;;16.25;3.35;;;;;;;;;;5116072;28;20023;-54
2024/03/24 12:58:00;;;;;;;16.27;3.50;;;;;;;;;;5109073;28;20020;-53
2024/03/24 13:00:25;;;;;;;15.27;3.83;;;;;;;;;;5095798;28;20043;-53
2024/03/24 13:02:51;;;;;;;13.13;3.88;;;;;;;;;;5094511;28;20088;-56
2024/03/24 13:05:18;;;;;;;14.43;3.72;;;;;;;;;;5098171;28;20077;-54
2024/03/24 13:07:44;;;;;;;14.25;2.78;;;;;;;;;;5112068;28;20023;-57
2024/03/24 13:10:12;;;;;;;10.23;2.83;;;;;;;;;;5095815;28;20030;-54
2024/03/24 13:12:37;;;;;;;15.18;4.22;;;;;;;;;;5095655;28;20066;-54
2024/03/24 13:15:02;;;;;;;14.52;3.28;;;;;;;;;;5095722;28;20379;-53
2024/03/24 13:17:31;;;;;;;12.38;3.13;;;;;;;;;;5077683;28;20511;-53
2024/03/24 13:19:59;;;;;;;13.82;3.20;;;;;;;;;;5103068;28;20098;-53
2024/03/24 13:22:25;;;;;;;14.57;3.53;;;;;;;;;;5115856;28;20103;-57
2024/03/24 13:24:52;;;;;;;16.30;3.95;;;;;;;;;;5115883;28;20043;-57
2024/03/24 13:27:26;;;;;;;12.55;2.78;;;;;;;;;;5115838;28;20024;-52
2024/03/24 13:29:52;;;;;;;12.88;3.28;;;;;;;;;;5115861;28;20012;-53
2024/03/24 13:32:17;;;;;;;15.18;3.95;;;;;;;;;;5089096;28;20016;-53
2024/03/24 13:34:42;;;;;;;13.60;3.35;;;;;;;;;;5097295;28;20089;-56
2024/03/24 13:37:08;;;;;;;11.45;2.88;;;;;;;;;;5109247;28;20024;-53
2024/03/24 13:39:52;;;;;;;9.50;2.80;;;;;;;;;;5095320;28;20034;-56
2024/03/24 13:42:17;;;;;;;11.30;2.90;;;;;;;;;;5095447;28;20073;-57
2024/03/24 13:44:46;;;;;;;13.52;3.35;;;;;;;;;;5096254;28;20024;-53
2024/03/24 13:47:23;;;;;;;11.60;3.20;;;;;;;;;;5115567;28;20020;-53
2024/03/24 13:49:49;;;;;;;11.32;3.22;;;;;;;;;;5115715;28;20051;-53
2024/03/24 13:52:14;;;;;;;12.45;2.83;;;;;;;;;;5115474;28;20016;-54
2024/03/24 13:54:40;;;;;;;12.27;2.90;;;;;;;;;;5115422;28;20436;-56
2024/03/24 13:57:06;;;;;;;14.45;4.00;;;;;;;;;;5113678;28;20395;-53
2024/03/24 13:59:31;;;;;;;13.27;3.03;;;;;;;;;;5115164;28;20046;-53
2024/03/24 14:01:58;;;;;;;12.15;3.20;;;;;;;;;;5114573;28;20020;-52
2024/03/24 14:04:23;;;;;;;11.27;2.90;;;;;;;;;;5115325;28;20388;-52
2024/03/24 14:06:49;;;;;;;10.32;2.60;;;;;;;;;;5097648;28;20016;-51
2024/03/24 14:09:14;;;;;;;9.13;2.70;;;;;;;;;;5095994;28;20022;-52
2024/03/24 14:11:40;;;;;;;9.35;2.72;;;;;;;;;;5094905;28;20103;-52
2024/03/24 14:14:22;;;;;;;12.90;2.75;;;;;;;;;;5095010;28;20445;-52
2024/03/24 14:16:48;;;;;;;12.95;2.90;;;;;;;;;;5095072;28;20028;-52
2024/03/24 14:19:13;;;;;;;11.93;3.08;;;;;;;;;;5095659;28;20024;-55
2024/03/24 14:21:43;;;;;;;12.50;2.45;;;;;;;;;;5114817;28;20381;-54
2024/03/24 14:24:27;;;;;;;12.20;2.72;;;;;;;;;;5115170;28;20058;-58
2024/03/24 14:26:52;;;;;;;12.00;2.72;;;;;;;;;;5094956;28;20099;-53
2024/03/24 14:29:18;;;;;;;9.48;2.95;;;;;;;;;;5095141;28;20055;-52